Aviation Digital Data Service (ADDS)

Output produced by METARs form (0812 UTC 30 August 2014)
found at http://aviationweather.gov/adds/metars/
 
KAUG 300526Z 3006/3106 19004KT P6SM SCT250